Time;durP1;ratioP1;P1;durP2;ratioP2;P2;SDS_P1;SDS_P2;PMS_P1;PMS_P2;Temp;Humidity;BMP_temperature;BMP_pressure;BME280_temperature;BME280_humidity;BME280_pressure;Samples;Min_cycle;Max_cycle;Signal;HPM_P1;HPM_P2
2024/03/12 00:01:44;;;;;;;229.80;62.80;;;;;;;;;;4994428;28;20187;-49
2024/03/12 00:04:11;;;;;;;228.48;61.65;;;;;;;;;;4994728;28;20542;-48
2024/03/12 00:06:37;;;;;;;228.73;62.70;;;;;;;;;;4994062;28;20200;-48
2024/03/12 00:09:06;;;;;;;229.48;61.05;;;;;;;;;;4994228;28;20263;-47
2024/03/12 00:11:35;;;;;;;227.38;62.60;;;;;;;;;;4994192;28;20176;-47
2024/03/12 00:14:02;;;;;;;230.30;62.78;;;;;;;;;;4994029;28;20192;-48
2024/03/12 00:16:28;;;;;;;228.30;63.33;;;;;;;;;;4993677;28;20211;-47
2024/03/12 00:18:55;;;;;;;226.05;59.17;;;;;;;;;;4994319;28;20185;-47
2024/03/12 00:21:22;;;;;;;227.73;62.72;;;;;;;;;;4992776;28;20522;-48
2024/03/12 00:23:48;;;;;;;230.00;64.18;;;;;;;;;;4994042;28;20187;-47
2024/03/12 00:26:20;;;;;;;230.98;65.43;;;;;;;;;;4993503;28;20723;-47
2024/03/12 00:28:47;;;;;;;226.98;61.60;;;;;;;;;;4993855;28;20215;-47
2024/03/12 00:31:13;;;;;;;226.55;60.25;;;;;;;;;;4994426;28;20538;-47
2024/03/12 00:33:42;;;;;;;229.25;63.83;;;;;;;;;;4994032;28;20316;-47
2024/03/12 00:36:08;;;;;;;224.45;59.33;;;;;;;;;;4993139;28;20695;-47
2024/03/12 00:38:34;;;;;;;227.13;61.03;;;;;;;;;;4993783;28;20256;-47
2024/03/12 00:41:00;;;;;;;224.63;58.67;;;;;;;;;;4993922;28;20764;-47
2024/03/12 00:43:26;;;;;;;230.60;65.53;;;;;;;;;;4993005;28;20812;-47
2024/03/12 00:45:53;;;;;;;229.32;64.00;;;;;;;;;;4992929;28;20431;-48
2024/03/12 00:48:19;;;;;;;229.75;63.80;;;;;;;;;;4993277;28;20177;-47
2024/03/12 00:50:46;;;;;;;230.25;65.38;;;;;;;;;;4993486;28;20596;-47
2024/03/12 00:53:13;;;;;;;226.82;61.50;;;;;;;;;;4993609;28;20183;-47
2024/03/12 00:55:40;;;;;;;227.73;60.33;;;;;;;;;;4993027;28;20199;-47
2024/03/12 00:58:12;;;;;;;229.77;63.22;;;;;;;;;;4993044;28;20663;-45
2024/03/12 01:00:39;;;;;;;229.07;64.70;;;;;;;;;;4993096;28;20617;-46
2024/03/12 01:03:08;;;;;;;229.05;61.50;;;;;;;;;;4993216;28;20223;-45
2024/03/12 01:05:36;;;;;;;226.27;59.92;;;;;;;;;;4993026;28;20660;-44
2024/03/12 01:08:03;;;;;;;229.50;63.85;;;;;;;;;;4992992;28;20594;-44
2024/03/12 01:10:30;;;;;;;226.35;62.47;;;;;;;;;;4993080;28;20172;-45
2024/03/12 01:12:57;;;;;;;226.48;60.38;;;;;;;;;;4993520;28;20644;-45
2024/03/12 01:15:24;;;;;;;228.25;62.70;;;;;;;;;;4992662;28;20235;-46
2024/03/12 01:17:51;;;;;;;228.40;62.55;;;;;;;;;;4993050;28;20184;-45
2024/03/12 01:20:20;;;;;;;226.50;60.28;;;;;;;;;;4992929;28;20738;-45
2024/03/12 01:22:46;;;;;;;228.85;62.88;;;;;;;;;;4992966;28;20179;-47
2024/03/12 01:25:13;;;;;;;232.55;65.70;;;;;;;;;;4992223;28;20266;-45
2024/03/12 01:27:41;;;;;;;232.18;65.20;;;;;;;;;;4989602;28;20208;-45
2024/03/12 01:30:13;;;;;;;229.48;63.35;;;;;;;;;;4991582;28;20589;-45
2024/03/12 01:32:39;;;;;;;227.77;61.58;;;;;;;;;;4992330;28;20721;-45
2024/03/12 01:35:08;;;;;;;229.23;64.83;;;;;;;;;;4991880;28;20219;-46
2024/03/12 01:37:35;;;;;;;229.05;62.33;;;;;;;;;;4992379;28;20490;-45
2024/03/12 01:40:09;;;;;;;228.07;62.03;;;;;;;;;;4992717;28;20178;-45
2024/03/12 01:42:35;;;;;;;222.07;58.72;;;;;;;;;;4992572;28;20241;-44
2024/03/12 01:45:01;;;;;;;235.27;69.03;;;;;;;;;;4992164;28;20695;-45
2024/03/12 01:47:29;;;;;;;228.53;62.60;;;;;;;;;;4993707;28;20451;-44
2024/03/12 01:49:55;;;;;;;228.23;62.03;;;;;;;;;;4992189;28;20416;-45
2024/03/12 01:52:23;;;;;;;226.37;61.83;;;;;;;;;;4992230;28;20189;-45
2024/03/12 01:54:50;;;;;;;232.02;66.95;;;;;;;;;;4992394;28;20454;-45
2024/03/12 01:57:16;;;;;;;229.45;64.25;;;;;;;;;;4991646;28;20207;-45
2024/03/12 01:59:41;;;;;;;228.32;63.05;;;;;;;;;;4992269;28;20183;-45
2024/03/12 02:02:07;;;;;;;225.57;61.00;;;;;;;;;;4992151;28;20654;-44
2024/03/12 02:04:34;;;;;;;228.93;63.47;;;;;;;;;;4991535;28;20782;-44
2024/03/12 02:07:00;;;;;;;233.25;66.53;;;;;;;;;;4991086;28;20766;-45
2024/03/12 02:09:26;;;;;;;229.18;62.03;;;;;;;;;;4991054;28;20188;-45
2024/03/12 02:11:52;;;;;;;229.35;62.63;;;;;;;;;;4991876;28;20222;-46
2024/03/12 02:14:18;;;;;;;226.20;60.20;;;;;;;;;;4991854;28;20184;-45
2024/03/12 02:16:44;;;;;;;229.95;64.40;;;;;;;;;;4991483;28;20975;-46
2024/03/12 02:19:10;;;;;;;228.40;62.47;;;;;;;;;;4991719;28;20180;-45
2024/03/12 02:21:36;;;;;;;225.48;61.72;;;;;;;;;;4991855;28;20251;-46
2024/03/12 02:24:03;;;;;;;227.10;60.53;;;;;;;;;;4997196;28;20173;-45
2024/03/12 02:26:31;;;;;;;228.38;61.50;;;;;;;;;;4991603;28;20212;-45
2024/03/12 02:28:58;;;;;;;226.15;61.00;;;;;;;;;;4991777;28;20588;-45
2024/03/12 02:31:24;;;;;;;224.73;59.75;;;;;;;;;;4991761;28;20187;-45
2024/03/12 02:33:52;;;;;;;225.43;60.53;;;;;;;;;;4991501;28;20192;-45
2024/03/12 02:36:20;;;;;;;226.00;62.58;;;;;;;;;;4990762;28;20483;-45
2024/03/12 02:38:46;;;;;;;228.10;62.80;;;;;;;;;;4991394;28;20181;-45
2024/03/12 02:41:12;;;;;;;225.63;60.97;;;;;;;;;;4991541;28;20183;-45
2024/03/12 02:43:38;;;;;;;225.82;59.08;;;;;;;;;;4991513;28;20822;-45
2024/03/12 02:46:04;;;;;;;225.68;59.70;;;;;;;;;;4990450;28;20254;-45
2024/03/12 02:48:30;;;;;;;226.43;61.17;;;;;;;;;;4991520;28;20238;-45
2024/03/12 02:50:56;;;;;;;226.48;60.08;;;;;;;;;;4991629;28;20184;-45
2024/03/12 02:53:22;;;;;;;226.05;59.13;;;;;;;;;;4991360;28;20180;-45
2024/03/12 02:55:48;;;;;;;222.77;57.78;;;;;;;;;;4991154;28;20294;-45
2024/03/12 02:58:15;;;;;;;225.57;60.08;;;;;;;;;;4991213;28;20212;-45
2024/03/12 03:00:43;;;;;;;226.65;61.58;;;;;;;;;;4991360;28;20229;-45
2024/03/12 03:03:09;;;;;;;224.95;59.92;;;;;;;;;;4991217;28;20691;-45
2024/03/12 03:05:35;;;;;;;226.52;61.85;;;;;;;;;;4991108;28;20210;-45
2024/03/12 03:08:01;;;;;;;227.40;63.15;;;;;;;;;;4991154;28;20228;-45
2024/03/12 03:10:27;;;;;;;225.88;60.45;;;;;;;;;;4991553;28;20603;-45
2024/03/12 03:12:53;;;;;;;224.57;60.67;;;;;;;;;;4991508;28;20328;-44
2024/03/12 03:15:20;;;;;;;226.77;61.70;;;;;;;;;;4990869;28;20439;-45
2024/03/12 03:17:48;;;;;;;226.68;61.20;;;;;;;;;;4991006;28;20467;-45
2024/03/12 03:20:14;;;;;;;224.20;58.75;;;;;;;;;;4991324;28;20172;-46
2024/03/12 03:22:41;;;;;;;225.48;59.10;;;;;;;;;;4993841;28;20179;-45
2024/03/12 03:25:07;;;;;;;226.80;60.88;;;;;;;;;;4993150;28;20280;-45
2024/03/12 03:27:33;;;;;;;224.35;60.38;;;;;;;;;;4991144;28;20259;-44
2024/03/12 03:30:00;;;;;;;227.73;61.95;;;;;;;;;;4990994;28;20179;-46
2024/03/12 03:32:28;;;;;;;225.32;59.60;;;;;;;;;;4991198;28;20188;-45
2024/03/12 03:34:54;;;;;;;239.77;67.50;;;;;;;;;;5032768;23;20211;-48
2024/03/12 03:37:26;;;;;;;224.07;60.40;;;;;;;;;;5028214;28;20252;-48
2024/03/12 03:39:53;;;;;;;225.80;61.55;;;;;;;;;;5029434;28;20417;-47
2024/03/12 03:42:20;;;;;;;223.13;58.03;;;;;;;;;;5030196;28;20205;-48
2024/03/12 03:44:45;;;;;;;228.80;62.75;;;;;;;;;;5030223;28;20170;-48
2024/03/12 03:47:11;;;;;;;225.70;60.73;;;;;;;;;;5030056;28;20528;-48
2024/03/12 03:49:37;;;;;;;226.83;61.70;;;;;;;;;;5030371;28;20838;-48
2024/03/12 03:52:03;;;;;;;227.02;61.22;;;;;;;;;;5030108;28;20406;-48
2024/03/12 03:54:29;;;;;;;223.45;58.67;;;;;;;;;;5030264;28;20689;-47
2024/03/12 03:56:55;;;;;;;228.10;63.77;;;;;;;;;;5032201;28;20203;-48
2024/03/12 03:59:21;;;;;;;227.18;61.65;;;;;;;;;;5033925;28;20410;-48
2024/03/12 04:01:49;;;;;;;229.70;66.23;;;;;;;;;;5033919;28;20178;-48
2024/03/12 04:04:15;;;;;;;228.65;63.03;;;;;;;;;;5033935;28;20421;-48
2024/03/12 04:06:43;;;;;;;226.15;61.55;;;;;;;;;;5033394;28;20278;-49
2024/03/12 04:09:09;;;;;;;229.52;64.95;;;;;;;;;;5033429;28;20178;-48
2024/03/12 04:11:35;;;;;;;226.75;61.95;;;;;;;;;;5034051;28;20182;-47
2024/03/12 04:14:02;;;;;;;226.88;61.85;;;;;;;;;;5033598;28;20285;-49
2024/03/12 04:16:32;;;;;;;229.00;63.22;;;;;;;;;;5033107;28;20297;-46
2024/03/12 04:18:59;;;;;;;227.00;60.88;;;;;;;;;;5033562;28;20280;-48
2024/03/12 04:21:26;;;;;;;229.15;62.58;;;;;;;;;;5033536;28;20171;-47
2024/03/12 04:23:52;;;;;;;227.82;62.80;;;;;;;;;;5033387;28;20224;-50
2024/03/12 04:26:19;;;;;;;226.17;61.70;;;;;;;;;;5032909;28;20195;-48
2024/03/12 04:28:45;;;;;;;227.85;60.67;;;;;;;;;;5033443;28;20407;-47
2024/03/12 04:31:11;;;;;;;225.32;61.08;;;;;;;;;;5033193;28;20213;-48
2024/03/12 04:33:37;;;;;;;226.43;60.60;;;;;;;;;;5033445;28;20557;-48
2024/03/12 04:36:06;;;;;;;225.43;59.90;;;;;;;;;;5032426;28;20214;-48
2024/03/12 04:38:33;;;;;;;227.55;60.97;;;;;;;;;;5033009;28;20413;-48
2024/03/12 04:40:59;;;;;;;227.45;60.15;;;;;;;;;;5033146;28;20250;-48
2024/03/12 04:43:25;;;;;;;228.30;62.10;;;;;;;;;;5033130;28;20171;-48
2024/03/12 04:45:52;;;;;;;225.77;59.85;;;;;;;;;;5032642;28;20597;-48
2024/03/12 04:48:18;;;;;;;228.50;60.80;;;;;;;;;;5032922;28;20179;-48
2024/03/12 04:50:44;;;;;;;224.40;59.17;;;;;;;;;;5032858;28;20187;-48
2024/03/12 04:53:10;;;;;;;226.97;60.73;;;;;;;;;;5032790;28;20478;-49
2024/03/12 04:55:39;;;;;;;223.53;57.37;;;;;;;;;;5032349;28;20444;-48
2024/03/12 04:58:05;;;;;;;226.90;60.63;;;;;;;;;;5032631;28;20415;-48
2024/03/12 05:00:31;;;;;;;228.30;61.45;;;;;;;;;;5032804;28;20575;-46
2024/03/12 05:02:57;;;;;;;226.10;59.15;;;;;;;;;;5032677;28;20182;-45
2024/03/12 05:05:23;;;;;;;226.55;59.40;;;;;;;;;;5031987;28;20237;-45
2024/03/12 05:07:50;;;;;;;227.40;60.40;;;;;;;;;;5031999;28;20554;-45
2024/03/12 05:10:16;;;;;;;239.43;68.82;;;;;;;;;;5030621;28;20175;-44
2024/03/12 05:12:42;;;;;;;226.45;60.03;;;;;;;;;;5031470;28;20174;-47
2024/03/12 05:15:11;;;;;;;233.48;65.85;;;;;;;;;;5028566;28;20195;-47
2024/03/12 05:17:38;;;;;;;228.10;60.95;;;;;;;;;;5031928;28;20197;-46
2024/03/12 05:20:12;;;;;;;226.63;59.20;;;;;;;;;;5031795;28;20175;-47
2024/03/12 05:22:38;;;;;;;225.35;57.63;;;;;;;;;;5031509;28;20254;-46
2024/03/12 05:25:09;;;;;;;238.25;69.05;;;;;;;;;;5028596;28;20258;-47
2024/03/12 05:27:37;;;;;;;224.60;57.38;;;;;;;;;;5032103;28;20597;-47
2024/03/12 05:30:10;;;;;;;228.65;62.00;;;;;;;;;;5028911;28;20166;-47
2024/03/12 05:32:37;;;;;;;226.88;60.60;;;;;;;;;;5032190;28;20186;-46
2024/03/12 05:35:05;;;;;;;227.23;60.38;;;;;;;;;;5031136;28;20233;-48
2024/03/12 05:38:01;;;;;;;225.07;58.03;;;;;;;;;;5028783;28;20198;-47
2024/03/12 05:40:39;;;;;;;224.02;57.08;;;;;;;;;;5026672;28;20579;-45
2024/03/12 05:48:34;;;;;;;222.18;55.85;;;;;;;;;;5027855;28;20206;-47
2024/03/12 05:51:01;;;;;;;224.00;56.90;;;;;;;;;;5028264;28;20177;-47
2024/03/12 05:53:27;;;;;;;223.98;57.80;;;;;;;;;;5028308;28;20413;-47
2024/03/12 05:55:53;;;;;;;223.95;57.70;;;;;;;;;;5028753;28;20206;-46
2024/03/12 05:58:19;;;;;;;223.03;58.07;;;;;;;;;;5030688;28;20173;-47
2024/03/12 06:00:45;;;;;;;223.05;57.83;;;;;;;;;;5031386;28;20416;-45
2024/03/12 06:03:11;;;;;;;223.15;58.13;;;;;;;;;;5031372;28;20218;-45
2024/03/12 06:05:37;;;;;;;223.93;57.47;;;;;;;;;;5027766;28;20269;-45
2024/03/12 06:08:03;;;;;;;224.03;57.93;;;;;;;;;;5027788;28;20414;-48
2024/03/12 06:10:29;;;;;;;223.98;57.30;;;;;;;;;;5028004;28;20441;-47
2024/03/12 06:12:54;;;;;;;223.03;58.20;;;;;;;;;;5031049;28;20214;-46
2024/03/12 06:15:20;;;;;;;223.83;58.70;;;;;;;;;;5030871;28;20429;-45
2024/03/12 06:17:46;;;;;;;230.37;62.00;;;;;;;;;;5030467;28;20462;-46
2024/03/12 06:20:12;;;;;;;225.27;58.40;;;;;;;;;;5029961;28;20413;-46
2024/03/12 06:22:40;;;;;;;225.70;59.03;;;;;;;;;;5027155;28;20405;-47
2024/03/12 06:25:08;;;;;;;228.55;62.97;;;;;;;;;;5027212;28;20171;-45
2024/03/12 06:27:34;;;;;;;225.60;58.70;;;;;;;;;;5030646;28;20665;-48
2024/03/12 06:30:00;;;;;;;226.43;60.27;;;;;;;;;;5029988;28;20272;-46
2024/03/12 06:32:31;;;;;;;225.73;58.93;;;;;;;;;;5027078;28;20412;-47
2024/03/12 06:34:57;;;;;;;228.68;60.60;;;;;;;;;;5027148;28;20948;-46
2024/03/12 06:37:23;;;;;;;226.40;58.75;;;;;;;;;;5029617;28;20203;-46
2024/03/12 06:39:51;;;;;;;226.15;60.15;;;;;;;;;;5027055;28;20202;-45
2024/03/12 06:42:19;;;;;;;228.82;62.10;;;;;;;;;;5030320;28;20167;-44
2024/03/12 06:44:46;;;;;;;225.15;58.97;;;;;;;;;;5030249;28;20676;-46
2024/03/12 06:47:14;;;;;;;226.13;60.05;;;;;;;;;;5027309;28;20286;-46
2024/03/12 06:49:44;;;;;;;224.02;58.47;;;;;;;;;;5027488;28;20179;-45
2024/03/12 06:52:11;;;;;;;226.25;58.85;;;;;;;;;;5027331;28;20217;-45
2024/03/12 06:54:36;;;;;;;224.20;59.35;;;;;;;;;;5030561;28;20276;-45
2024/03/12 06:57:04;;;;;;;225.48;59.67;;;;;;;;;;5030354;28;20244;-46
2024/03/12 06:59:32;;;;;;;224.10;57.90;;;;;;;;;;5031102;28;20171;-45
2024/03/12 07:01:59;;;;;;;223.85;58.75;;;;;;;;;;5027170;28;20164;-46
2024/03/12 07:04:34;;;;;;;226.15;61.63;;;;;;;;;;5025026;28;20567;-46
2024/03/12 07:07:00;;;;;;;225.05;61.08;;;;;;;;;;5026917;28;20193;-45
2024/03/12 07:09:26;;;;;;;227.40;62.13;;;;;;;;;;5030513;28;20183;-46
2024/03/12 07:11:58;;;;;;;224.07;58.30;;;;;;;;;;5030580;28;20479;-47
2024/03/12 07:14:29;;;;;;;225.60;58.22;;;;;;;;;;5030373;28;20420;-47
2024/03/12 07:16:55;;;;;;;226.25;59.17;;;;;;;;;;5029186;28;20205;-48
2024/03/12 07:19:25;;;;;;;227.30;60.85;;;;;;;;;;5030467;28;20204;-46
2024/03/12 07:21:52;;;;;;;225.32;58.53;;;;;;;;;;5030450;28;20629;-45
2024/03/12 07:24:19;;;;;;;224.50;57.38;;;;;;;;;;5030487;28;20265;-47
2024/03/12 07:26:48;;;;;;;227.32;61.05;;;;;;;;;;5030068;28;20191;-46
2024/03/12 07:29:14;;;;;;;228.93;61.10;;;;;;;;;;5026256;28;20189;-46
2024/03/12 07:31:40;;;;;;;228.40;61.42;;;;;;;;;;5029526;28;20179;-45
2024/03/12 07:34:06;;;;;;;226.97;60.03;;;;;;;;;;5033793;28;20593;-45
2024/03/12 07:36:33;;;;;;;226.77;60.60;;;;;;;;;;5033640;28;20466;-47
2024/03/12 07:38:59;;;;;;;226.13;59.35;;;;;;;;;;5033764;28;20181;-47
2024/03/12 07:41:26;;;;;;;224.25;58.70;;;;;;;;;;5029849;28;20178;-45
2024/03/12 07:43:52;;;;;;;225.88;59.45;;;;;;;;;;5032040;28;20210;-45
2024/03/12 07:46:18;;;;;;;225.17;58.97;;;;;;;;;;5030527;28;20198;-47
2024/03/12 07:48:44;;;;;;;225.37;60.50;;;;;;;;;;5033732;28;20815;-46
2024/03/12 07:51:10;;;;;;;226.82;60.95;;;;;;;;;;5033914;28;20458;-45
2024/03/12 07:53:36;;;;;;;226.85;60.55;;;;;;;;;;5033960;28;20170;-46
2024/03/12 07:56:05;;;;;;;225.85;57.92;;;;;;;;;;5033391;28;20206;-46
2024/03/12 07:58:31;;;;;;;225.73;59.78;;;;;;;;;;5030345;28;20169;-46
2024/03/12 08:00:57;;;;;;;225.02;59.03;;;;;;;;;;5030419;28;20190;-44
2024/03/12 08:03:23;;;;;;;224.35;59.80;;;;;;;;;;5030316;28;20170;-47
2024/03/12 08:05:49;;;;;;;225.97;59.20;;;;;;;;;;5032273;28;20567;-47
2024/03/12 08:08:15;;;;;;;226.63;60.33;;;;;;;;;;5033229;28;20416;-46
2024/03/12 08:10:41;;;;;;;225.70;59.22;;;;;;;;;;5033464;28;20199;-47
2024/03/12 08:13:07;;;;;;;224.97;58.80;;;;;;;;;;5033385;28;20167;-47
2024/03/12 08:15:33;;;;;;;224.87;59.17;;;;;;;;;;5032916;28;20471;-47
2024/03/12 08:18:01;;;;;;;223.68;58.67;;;;;;;;;;5033306;28;21046;-46
2024/03/12 08:20:27;;;;;;;222.88;58.72;;;;;;;;;;5033251;28;20185;-45
2024/03/12 08:22:53;;;;;;;220.60;56.33;;;;;;;;;;5033262;28;20191;-46
2024/03/12 08:25:20;;;;;;;226.57;60.90;;;;;;;;;;5032843;28;20438;-47
2024/03/12 08:27:48;;;;;;;225.60;61.30;;;;;;;;;;5032915;28;20468;-47
2024/03/12 08:30:15;;;;;;;224.85;60.40;;;;;;;;;;5032964;28;20204;-45
2024/03/12 08:32:44;;;;;;;226.35;62.58;;;;;;;;;;5033168;28;20655;-45
2024/03/12 08:35:13;;;;;;;229.10;62.72;;;;;;;;;;5032560;28;20220;-48
2024/03/12 08:37:39;;;;;;;225.60;60.53;;;;;;;;;;5032989;28;20203;-45
2024/03/12 08:40:08;;;;;;;224.20;57.87;;;;;;;;;;5033149;28;20231;-46
2024/03/12 08:42:35;;;;;;;223.95;58.88;;;;;;;;;;5031830;28;20450;-47
2024/03/12 08:45:01;;;;;;;232.20;66.57;;;;;;;;;;5032405;28;20171;-46
2024/03/12 08:47:27;;;;;;;227.07;62.37;;;;;;;;;;5032857;28;20176;-46
2024/03/12 08:49:53;;;;;;;225.27;60.67;;;;;;;;;;5032795;28;20419;-45
2024/03/12 08:52:21;;;;;;;224.43;60.00;;;;;;;;;;5032939;28;20416;-45
2024/03/12 08:54:47;;;;;;;224.15;59.42;;;;;;;;;;5032612;28;20171;-45
2024/03/12 08:57:13;;;;;;;224.57;60.27;;;;;;;;;;5032416;28;20561;-46
2024/03/12 08:59:40;;;;;;;226.60;61.47;;;;;;;;;;5032821;28;20769;-45
2024/03/12 09:02:07;;;;;;;226.27;60.15;;;;;;;;;;5032758;28;20188;-47
2024/03/12 09:04:33;;;;;;;225.98;60.60;;;;;;;;;;5032731;28;20180;-47
2024/03/12 09:07:00;;;;;;;225.35;60.45;;;;;;;;;;5032154;28;20206;-46
2024/03/12 09:09:26;;;;;;;229.45;63.80;;;;;;;;;;5012678;28;20175;-46
2024/03/12 09:11:54;;;;;;;226.90;61.83;;;;;;;;;;5027929;28;20175;-47
2024/03/12 09:14:22;;;;;;;230.32;65.63;;;;;;;;;;5032199;28;20289;-45
2024/03/12 09:16:48;;;;;;;227.75;63.10;;;;;;;;;;5030770;28;20213;-47
2024/03/12 09:19:15;;;;;;;227.53;63.40;;;;;;;;;;5032288;28;20176;-47
2024/03/12 09:21:42;;;;;;;225.13;61.85;;;;;;;;;;5032291;28;20439;-46
2024/03/12 09:24:09;;;;;;;224.98;61.75;;;;;;;;;;5032691;28;20540;-45
2024/03/12 09:26:36;;;;;;;233.25;67.07;;;;;;;;;;5031523;28;20204;-47
2024/03/12 09:29:02;;;;;;;225.48;61.33;;;;;;;;;;5031847;28;20186;-46
2024/03/12 09:31:28;;;;;;;226.40;61.15;;;;;;;;;;5031909;28;20174;-47
2024/03/12 09:33:55;;;;;;;225.65;61.00;;;;;;;;;;5030697;28;20189;-46
2024/03/12 09:36:21;;;;;;;227.57;63.33;;;;;;;;;;5031544;28;20333;-43
2024/03/12 09:38:50;;;;;;;227.70;64.47;;;;;;;;;;5031540;28;20493;-42
2024/03/12 09:41:18;;;;;;;227.07;63.03;;;;;;;;;;5034199;28;20198;-43
2024/03/12 09:43:45;;;;;;;225.38;62.92;;;;;;;;;;5031657;28;20214;-45
2024/03/12 09:46:11;;;;;;;228.00;64.57;;;;;;;;;;5031302;28;20211;-43
2024/03/12 09:48:38;;;;;;;225.82;62.35;;;;;;;;;;5029348;28;20183;-43
2024/03/12 09:51:06;;;;;;;227.60;62.08;;;;;;;;;;5031141;28;20206;-43
2024/03/12 09:53:32;;;;;;;228.75;64.95;;;;;;;;;;5031170;28;20181;-43
2024/03/12 09:55:59;;;;;;;226.40;62.30;;;;;;;;;;5030965;28;20195;-45
2024/03/12 09:58:25;;;;;;;228.27;63.08;;;;;;;;;;5034616;28;20174;-46
2024/03/12 10:00:53;;;;;;;223.18;59.85;;;;;;;;;;5031530;28;20190;-43
2024/03/12 10:03:19;;;;;;;227.50;62.42;;;;;;;;;;5031379;28;20533;-44
2024/03/12 10:05:46;;;;;;;227.57;64.80;;;;;;;;;;5030787;28;20198;-43
2024/03/12 10:08:13;;;;;;;223.10;61.85;;;;;;;;;;5031202;28;20179;-47
2024/03/12 10:10:40;;;;;;;226.55;61.78;;;;;;;;;;5031177;28;20182;-43
2024/03/12 10:13:16;;;;;;;225.98;60.65;;;;;;;;;;5031249;28;20500;-43
2024/03/12 10:15:53;;;;;;;223.77;59.78;;;;;;;;;;5030949;28;20187;-42
2024/03/12 10:18:20;;;;;;;228.70;64.25;;;;;;;;;;5031012;28;20643;-45
2024/03/12 10:20:50;;;;;;;224.40;60.75;;;;;;;;;;5031126;28;20202;-43
2024/03/12 10:23:18;;;;;;;224.45;60.75;;;;;;;;;;5031039;28;20221;-43
2024/03/12 10:25:44;;;;;;;225.90;61.67;;;;;;;;;;5030630;28;20603;-44
2024/03/12 10:28:14;;;;;;;227.15;63.15;;;;;;;;;;5030879;28;20167;-44
2024/03/12 10:30:41;;;;;;;232.30;69.35;;;;;;;;;;5030776;28;20194;-43
2024/03/12 10:33:12;;;;;;;233.82;70.32;;;;;;;;;;5030940;28;20307;-45
2024/03/12 10:35:38;;;;;;;229.35;65.75;;;;;;;;;;5030272;28;20203;-43
2024/03/12 10:38:06;;;;;;;232.95;68.90;;;;;;;;;;5030928;28;20246;-45
2024/03/12 10:40:33;;;;;;;230.93;65.55;;;;;;;;;;5031457;28;20210;-43
2024/03/12 10:43:01;;;;;;;231.27;66.73;;;;;;;;;;5030825;28;20199;-42
2024/03/12 10:45:31;;;;;;;230.02;65.85;;;;;;;;;;5030279;28;20836;-45
2024/03/12 10:47:58;;;;;;;229.88;67.35;;;;;;;;;;5030924;28;20651;-45
2024/03/12 10:50:25;;;;;;;231.43;66.53;;;;;;;;;;5030806;28;20260;-45
2024/03/12 10:52:58;;;;;;;226.10;62.88;;;;;;;;;;5031048;28;20218;-44
2024/03/12 10:55:30;;;;;;;228.32;64.25;;;;;;;;;;5030418;28;20290;-43
2024/03/12 10:57:58;;;;;;;230.77;66.65;;;;;;;;;;5030131;28;20201;-45
2024/03/12 11:00:28;;;;;;;227.73;62.53;;;;;;;;;;5030568;28;20179;-47
2024/03/12 11:02:54;;;;;;;230.88;66.68;;;;;;;;;;5030599;28;20581;-43
2024/03/12 11:05:21;;;;;;;230.60;66.18;;;;;;;;;;5030401;28;20249;-44
2024/03/12 11:07:48;;;;;;;231.23;66.63;;;;;;;;;;5034671;28;20224;-44
2024/03/12 11:10:14;;;;;;;231.57;66.72;;;;;;;;;;5034694;28;20188;-43
2024/03/12 11:12:43;;;;;;;229.45;63.50;;;;;;;;;;5035046;28;20183;-43
2024/03/12 11:15:09;;;;;;;233.35;69.53;;;;;;;;;;5034079;28;20202;-43
2024/03/12 11:17:37;;;;;;;233.20;67.13;;;;;;;;;;5033813;28;20199;-43
2024/03/12 11:20:05;;;;;;;231.00;66.53;;;;;;;;;;5034457;28;20190;-44
2024/03/12 11:22:34;;;;;;;235.15;70.47;;;;;;;;;;5034507;28;20183;-43
2024/03/12 11:25:04;;;;;;;232.98;65.28;;;;;;;;;;5033882;28;20178;-45
2024/03/12 11:27:31;;;;;;;231.38;67.43;;;;;;;;;;5034323;28;20176;-45
2024/03/12 11:30:33;;;;;;;232.25;66.00;;;;;;;;;;5034436;28;20214;-43
2024/03/12 11:32:52;;;;;;;235.15;69.55;;;;;;;;;;5033206;28;20223;-44
2024/03/12 11:35:21;;;;;;;234.15;68.10;;;;;;;;;;5033688;28;20235;-43
2024/03/12 11:37:47;;;;;;;232.73;68.30;;;;;;;;;;5034371;28;20211;-43
2024/03/12 11:40:26;;;;;;;233.23;69.28;;;;;;;;;;5034032;28;20176;-43
2024/03/12 11:42:54;;;;;;;236.10;73.68;;;;;;;;;;5034133;28;20178;-44
2024/03/12 11:45:39;;;;;;;239.32;76.97;;;;;;;;;;5033335;28;20207;-46
2024/03/12 11:48:06;;;;;;;233.18;69.18;;;;;;;;;;5032060;28;20654;-47
2024/03/12 11:50:33;;;;;;;235.38;72.32;;;;;;;;;;5033729;28;20180;-44
2024/03/12 11:53:18;;;;;;;239.60;77.85;;;;;;;;;;5033677;28;20260;-43
2024/03/12 11:55:55;;;;;;;229.52;66.88;;;;;;;;;;5033307;28;20202;-45
2024/03/12 11:58:24;;;;;;;233.73;72.18;;;;;;;;;;5033941;28;20572;-43
2024/03/12 12:00:50;;;;;;;232.50;68.55;;;;;;;;;;5033646;28;20333;-44
2024/03/12 12:03:17;;;;;;;230.43;66.20;;;;;;;;;;5033613;28;20206;-45
2024/03/12 12:05:47;;;;;;;232.00;68.55;;;;;;;;;;5033489;28;20438;-45
2024/03/12 12:08:16;;;;;;;227.68;65.10;;;;;;;;;;5033495;28;20179;-43
2024/03/12 12:10:42;;;;;;;229.43;65.70;;;;;;;;;;5033401;28;20229;-43
2024/03/12 12:13:17;;;;;;;228.13;65.85;;;;;;;;;;5033404;28;20183;-43
2024/03/12 12:16:01;;;;;;;229.68;65.70;;;;;;;;;;5033233;28;20198;-43
2024/03/12 12:18:27;;;;;;;227.23;63.83;;;;;;;;;;5033378;28;20232;-47
2024/03/12 12:20:53;;;;;;;227.50;62.75;;;;;;;;;;5033595;28;20168;-44
2024/03/12 12:23:20;;;;;;;230.50;65.15;;;;;;;;;;5032756;28;20167;-44
2024/03/12 12:25:47;;;;;;;230.60;65.63;;;;;;;;;;5032745;28;20199;-44
2024/03/12 12:28:14;;;;;;;229.70;66.50;;;;;;;;;;5031062;28;20187;-44
2024/03/12 12:30:44;;;;;;;229.32;63.63;;;;;;;;;;5033190;28;20655;-46
2024/03/12 12:33:13;;;;;;;231.52;67.38;;;;;;;;;;5033244;28;20167;-47
2024/03/12 12:35:41;;;;;;;232.20;69.20;;;;;;;;;;5032561;28;20211;-47
2024/03/12 12:38:07;;;;;;;237.52;73.90;;;;;;;;;;5032944;28;20493;-46
2024/03/12 12:40:33;;;;;;;237.60;75.80;;;;;;;;;;5032954;28;20543;-45
2024/03/12 12:42:59;;;;;;;234.90;73.00;;;;;;;;;;5033242;28;20256;-45
2024/03/12 12:45:26;;;;;;;235.47;73.93;;;;;;;;;;5032698;28;20236;-46
2024/03/12 12:47:54;;;;;;;237.10;75.38;;;;;;;;;;5032873;28;20425;-46
2024/03/12 12:50:26;;;;;;;238.65;77.00;;;;;;;;;;5032471;28;20178;-43
2024/03/12 12:52:56;;;;;;;236.52;74.97;;;;;;;;;;5032820;28;20655;-43
2024/03/12 12:55:22;;;;;;;238.48;75.25;;;;;;;;;;5032387;28;20211;-43
2024/03/12 12:57:57;;;;;;;232.80;69.27;;;;;;;;;;5032643;28;20199;-43
2024/03/12 13:00:23;;;;;;;234.00;72.55;;;;;;;;;;5032746;28;20485;-43
2024/03/12 13:02:49;;;;;;;234.98;72.93;;;;;;;;;;5032479;28;20172;-46
2024/03/12 13:05:19;;;;;;;235.50;74.93;;;;;;;;;;5032466;28;20206;-42
2024/03/12 13:07:45;;;;;;;232.80;70.45;;;;;;;;;;5032507;28;20410;-43
2024/03/12 13:10:18;;;;;;;235.55;73.13;;;;;;;;;;5032510;28;20175;-42
2024/03/12 13:12:44;;;;;;;231.57;70.15;;;;;;;;;;5032464;28;20262;-44
2024/03/12 13:15:23;;;;;;;234.55;71.88;;;;;;;;;;5031979;28;20274;-44
2024/03/12 13:17:51;;;;;;;231.13;68.82;;;;;;;;;;5032225;28;20206;-43
2024/03/12 13:20:19;;;;;;;231.43;67.93;;;;;;;;;;5032285;28;20174;-42
2024/03/12 13:22:45;;;;;;;233.27;68.75;;;;;;;;;;5031464;28;20214;-44
2024/03/12 13:25:11;;;;;;;240.00;75.55;;;;;;;;;;5031936;28;20223;-42
2024/03/12 13:27:38;;;;;;;236.52;72.68;;;;;;;;;;5031811;28;20194;-45
2024/03/12 13:30:04;;;;;;;235.60;74.88;;;;;;;;;;5025384;28;20221;-46
2024/03/12 13:32:30;;;;;;;240.73;78.07;;;;;;;;;;5031666;28;20538;-43
2024/03/12 13:34:57;;;;;;;238.57;77.20;;;;;;;;;;5031431;28;20171;-44
2024/03/12 13:37:23;;;;;;;242.88;80.35;;;;;;;;;;5030148;28;20481;-44
2024/03/12 13:39:49;;;;;;;239.87;77.90;;;;;;;;;;5028755;28;20184;-47
2024/03/12 13:42:15;;;;;;;238.47;76.50;;;;;;;;;;5030838;28;20451;-43
2024/03/12 13:44:41;;;;;;;236.83;74.47;;;;;;;;;;5031699;28;20417;-43
2024/03/12 13:47:07;;;;;;;243.98;79.25;;;;;;;;;;5030058;28;20448;-42
2024/03/12 13:49:34;;;;;;;240.83;78.00;;;;;;;;;;5032155;28;20548;-43
2024/03/12 13:52:00;;;;;;;241.00;77.85;;;;;;;;;;5031812;28;20453;-42
2024/03/12 13:54:27;;;;;;;238.55;75.07;;;;;;;;;;5031848;28;20202;-42
2024/03/12 13:56:53;;;;;;;241.13;78.47;;;;;;;;;;5031307;28;20792;-43
2024/03/12 13:59:19;;;;;;;240.33;77.10;;;;;;;;;;5031504;28;20182;-44
2024/03/12 14:01:46;;;;;;;242.33;80.10;;;;;;;;;;5031532;28;20407;-44
2024/03/12 14:04:13;;;;;;;241.80;79.72;;;;;;;;;;5031455;28;20440;-42
2024/03/12 14:06:40;;;;;;;244.85;82.60;;;;;;;;;;5031223;28;20213;-46
2024/03/12 14:09:11;;;;;;;243.45;83.28;;;;;;;;;;5031289;28;20602;-47
2024/03/12 14:11:38;;;;;;;241.40;79.55;;;;;;;;;;5031574;28;20182;-43